sensor_id;sensor_type;location;lat;lon;timestamp;pressure;altitude;pressure_sealevel;temperature
22269;BMP280;11303;50.772;19.670;2022-12-10T00:01:22;97764.84;;;0.49
22269;BMP280;11303;50.772;19.670;2022-12-10T00:03:24;97748.44;;;0.49
22269;BMP280;11303;50.772;19.670;2022-12-10T00:05:25;97757.75;;;0.50
22269;BMP280;11303;50.772;19.670;2022-12-10T00:07:27;97739.50;;;0.50
22269;BMP280;11303;50.772;19.670;2022-12-10T00:09:28;97737.66;;;0.50
22269;BMP280;11303;50.772;19.670;2022-12-10T00:11:30;97754.06;;;0.51
22269;BMP280;11303;50.772;19.670;2022-12-10T00:13:33;97746.25;;;0.51
22269;BMP280;11303;50.772;19.670;2022-12-10T00:15:35;97752.19;;;0.51
22269;BMP280;11303;50.772;19.670;2022-12-10T00:17:36;97760.00;;;0.51
22269;BMP280;11303;50.772;19.670;2022-12-10T00:19:38;97758.94;;;0.52
22269;BMP280;11303;50.772;19.670;2022-12-10T00:21:39;97757.81;;;0.53
22269;BMP280;11303;50.772;19.670;2022-12-10T00:23:41;97754.88;;;0.55
22269;BMP280;11303;50.772;19.670;2022-12-10T00:25:43;97747.03;;;0.55
22269;BMP280;11303;50.772;19.670;2022-12-10T00:27:44;97747.81;;;0.55
22269;BMP280;11303;50.772;19.670;2022-12-10T00:29:46;97739.97;;;0.55
22269;BMP280;11303;50.772;19.670;2022-12-10T00:31:47;97746.69;;;0.56
22269;BMP280;11303;50.772;19.670;2022-12-10T00:33:49;97738.88;;;0.56
22269;BMP280;11303;50.772;19.670;2022-12-10T00:35:51;97751.56;;;0.58
22269;BMP280;11303;50.772;19.670;2022-12-10T00:37:53;97741.91;;;0.58
22269;BMP280;11303;50.772;19.670;2022-12-10T00:39:54;97754.94;;;0.58
22269;BMP280;11303;50.772;19.670;2022-12-10T00:41:56;97748.63;;;0.59
22269;BMP280;11303;50.772;19.670;2022-12-10T00:43:57;97740.38;;;0.57
22269;BMP280;11303;50.772;19.670;2022-12-10T00:45:59;97760.53;;;0.60
22269;BMP280;11303;50.772;19.670;2022-12-10T00:48:00;97761.31;;;0.61
22269;BMP280;11303;50.772;19.670;2022-12-10T00:50:02;97771.75;;;0.61
22269;BMP280;11303;50.772;19.670;2022-12-10T00:52:04;97762.81;;;0.62
22269;BMP280;11303;50.772;19.670;2022-12-10T00:54:05;97768.03;;;0.62
22269;BMP280;11303;50.772;19.670;2022-12-10T00:56:08;97773.59;;;0.60
22269;BMP280;11303;50.772;19.670;2022-12-10T00:58:10;97767.28;;;0.61
22269;BMP280;11303;50.772;19.670;2022-12-10T01:00:12;97763.56;;;0.62
22269;BMP280;11303;50.772;19.670;2022-12-10T01:02:14;97756.84;;;0.61
22269;BMP280;11303;50.772;19.670;2022-12-10T01:04:17;97756.09;;;0.61
22269;BMP280;11303;50.772;19.670;2022-12-10T01:06:22;97751.63;;;0.61
22269;BMP280;11303;50.772;19.670;2022-12-10T01:08:23;97746.41;;;0.61
22269;BMP280;11303;50.772;19.670;2022-12-10T01:10:25;97754.25;;;0.61
22269;BMP280;11303;50.772;19.670;2022-12-10T01:12:26;97756.84;;;0.61
22269;BMP280;11303;50.772;19.670;2022-12-10T01:14:32;97762.47;;;0.63
22269;BMP280;11303;50.772;19.670;2022-12-10T01:16:33;97760.97;;;0.62
22269;BMP280;11303;50.772;19.670;2022-12-10T01:18:36;97768.78;;;0.62
22269;BMP280;11303;50.772;19.670;2022-12-10T01:20:38;97751.63;;;0.61
22269;BMP280;11303;50.772;19.670;2022-12-10T01:22:39;97751.63;;;0.61
22269;BMP280;11303;50.772;19.670;2022-12-10T01:24:41;97753.47;;;0.61
22269;BMP280;11303;50.772;19.670;2022-12-10T01:26:42;97752.38;;;0.62
22269;BMP280;11303;50.772;19.670;2022-12-10T01:28:44;97751.97;;;0.60
22269;BMP280;11303;50.772;19.670;2022-12-10T01:30:46;97757.94;;;0.60
22269;BMP280;11303;50.772;19.670;2022-12-10T01:32:47;97761.31;;;0.61
22269;BMP280;11303;50.772;19.670;2022-12-10T01:34:49;97754.59;;;0.60
22269;BMP280;11303;50.772;19.670;2022-12-10T01:36:53;97755.31;;;0.60
22269;BMP280;11303;50.772;19.670;2022-12-10T01:38:55;97753.81;;;0.59
22269;BMP280;11303;50.772;19.670;2022-12-10T01:40:58;97752.72;;;0.60
22269;BMP280;11303;50.772;19.670;2022-12-10T01:43:00;97750.13;;;0.60
22269;BMP280;11303;50.772;19.670;2022-12-10T01:45:05;97752.72;;;0.60
22269;BMP280;11303;50.772;19.670;2022-12-10T01:47:08;97759.81;;;0.60
22269;BMP280;11303;50.772;19.670;2022-12-10T01:49:21;97749.72;;;0.58
22269;BMP280;11303;50.772;19.670;2022-12-10T01:51:24;97753.41;;;0.57
22269;BMP280;11303;50.772;19.670;2022-12-10T01:53:26;97750.81;;;0.57
22269;BMP280;11303;50.772;19.670;2022-12-10T01:55:46;97750.06;;;0.57
22269;BMP280;11303;50.772;19.670;2022-12-10T01:57:49;97752.69;;;0.57
22269;BMP280;11303;50.772;19.670;2022-12-10T01:59:57;97744.84;;;0.57
22269;BMP280;11303;50.772;19.670;2022-12-10T02:04:29;97755.97;;;0.54
22269;BMP280;11303;50.772;19.670;2022-12-10T02:06:45;97761.94;;;0.54
22269;BMP280;11303;50.772;19.670;2022-12-10T02:09:13;97763.03;;;0.53
22269;BMP280;11303;50.772;19.670;2022-12-10T02:11:24;97766.41;;;0.54
22269;BMP280;11303;50.772;19.670;2022-12-10T02:15:42;97771.97;;;0.52
22269;BMP280;11303;50.772;19.670;2022-12-10T02:17:48;97783.91;;;0.53
22269;BMP280;11303;50.772;19.670;2022-12-10T02:20:11;97786.50;;;0.53
22269;BMP280;11303;50.772;19.670;2022-12-10T02:22:17;97782.41;;;0.52
22269;BMP280;11303;50.772;19.670;2022-12-10T02:24:24;97772.72;;;0.53
22269;BMP280;11303;50.772;19.670;2022-12-10T02:27:10;97773.06;;;0.51
22269;BMP280;11303;50.772;19.670;2022-12-10T02:29:24;97770.44;;;0.51
22269;BMP280;11303;50.772;19.670;2022-12-10T02:31:30;97764.50;;;0.51
22269;BMP280;11303;50.772;19.670;2022-12-10T02:33:33;97766.34;;;0.50
22269;BMP280;11303;50.772;19.670;2022-12-10T02:35:38;97774.16;;;0.50
22269;BMP280;11303;50.772;19.670;2022-12-10T02:37:51;97761.47;;;0.49
22269;BMP280;11303;50.772;19.670;2022-12-10T02:39:57;97770.06;;;0.49
22269;BMP280;11303;50.772;19.670;2022-12-10T02:42:02;97775.28;;;0.49
22269;BMP280;11303;50.772;19.670;2022-12-10T02:44:07;97773.41;;;0.50
22269;BMP280;11303;50.772;19.670;2022-12-10T02:46:10;97765.56;;;0.50
22269;BMP280;11303;50.772;19.670;2022-12-10T02:48:13;97776.00;;;0.50
22269;BMP280;11303;50.772;19.670;2022-12-10T02:50:17;97767.44;;;0.49
22269;BMP280;11303;50.772;19.670;2022-12-10T02:52:21;97767.44;;;0.49
22269;BMP280;11303;50.772;19.670;2022-12-10T02:54:44;97756.59;;;0.47
22269;BMP280;11303;50.772;19.670;2022-12-10T02:56:54;97763.31;;;0.48
22269;BMP280;11303;50.772;19.670;2022-12-10T03:01:14;97760.31;;;0.46
22269;BMP280;11303;50.772;19.670;2022-12-10T03:03:29;97762.16;;;0.46
22269;BMP280;11303;50.772;19.670;2022-12-10T03:07:55;97759.91;;;0.44
22269;BMP280;11303;50.772;19.670;2022-12-10T03:10:02;97772.94;;;0.44
22269;BMP280;11303;50.772;19.670;2022-12-10T03:12:38;97762.50;;;0.44
22269;BMP280;11303;50.772;19.670;2022-12-10T03:14:42;97764.69;;;0.42
22269;BMP280;11303;50.772;19.670;2022-12-10T03:16:57;97779.25;;;0.43
22269;BMP280;11303;50.772;19.670;2022-12-10T03:19:03;97773.28;;;0.43
22269;BMP280;11303;50.772;19.670;2022-12-10T03:21:06;97769.19;;;0.42
22269;BMP280;11303;50.772;19.670;2022-12-10T03:23:12;97772.53;;;0.42
22269;BMP280;11303;50.772;19.670;2022-12-10T03:25:19;97772.53;;;0.42
22269;BMP280;11303;50.772;19.670;2022-12-10T03:27:23;97775.13;;;0.42
22269;BMP280;11303;50.772;19.670;2022-12-10T03:29:28;97777.72;;;0.42
22269;BMP280;11303;50.772;19.670;2022-12-10T03:31:34;97771.03;;;0.41
22269;BMP280;11303;50.772;19.670;2022-12-10T03:33:36;97775.13;;;0.42
22269;BMP280;11303;50.772;19.670;2022-12-10T03:35:38;97773.28;;;0.43
22269;BMP280;11303;50.772;19.670;2022-12-10T03:37:40;97775.88;;;0.43
22269;BMP280;11303;50.772;19.670;2022-12-10T03:39:42;97781.09;;;0.43
22269;BMP280;11303;50.772;19.670;2022-12-10T03:41:44;97784.47;;;0.43
22269;BMP280;11303;50.772;19.670;2022-12-10T03:43:54;97784.47;;;0.43
22269;BMP280;11303;50.772;19.670;2022-12-10T03:45:55;97785.56;;;0.42
22269;BMP280;11303;50.772;19.670;2022-12-10T03:47:57;97784.06;;;0.41
22269;BMP280;11303;50.772;19.670;2022-12-10T03:49:58;97793.81;;;0.44
22269;BMP280;11303;50.772;19.670;2022-12-10T03:52:00;97792.31;;;0.43
22269;BMP280;11303;50.772;19.670;2022-12-10T03:54:01;97781.88;;;0.43
22269;BMP280;11303;50.772;19.670;2022-12-10T03:56:04;97789.69;;;0.43
22269;BMP280;11303;50.772;19.670;2022-12-10T03:58:05;97791.19;;;0.44
22269;BMP280;11303;50.772;19.670;2022-12-10T04:00:07;97794.91;;;0.43
22269;BMP280;11303;50.772;19.670;2022-12-10T04:02:09;97800.84;;;0.44
22269;BMP280;11303;50.772;19.670;2022-12-10T04:04:12;97806.06;;;0.44
22269;BMP280;11303;50.772;19.670;2022-12-10T04:06:16;97804.22;;;0.44
22269;BMP280;11303;50.772;19.670;2022-12-10T04:08:18;97804.22;;;0.44
22269;BMP280;11303;50.772;19.670;2022-12-10T04:10:19;97814.66;;;0.44
22269;BMP280;11303;50.772;19.670;2022-12-10T04:12:21;97812.06;;;0.44
22269;BMP280;11303;50.772;19.670;2022-12-10T04:14:22;97813.56;;;0.45
22269;BMP280;11303;50.772;19.670;2022-12-10T04:16:43;97813.56;;;0.45
22269;BMP280;11303;50.772;19.670;2022-12-10T04:18:44;97813.56;;;0.45
22269;BMP280;11303;50.772;19.670;2022-12-10T04:20:46;97816.16;;;0.45
22269;BMP280;11303;50.772;19.670;2022-12-10T04:23:06;97810.22;;;0.45
22269;BMP280;11303;50.772;19.670;2022-12-10T04:25:27;97813.56;;;0.45
22269;BMP280;11303;50.772;19.670;2022-12-10T04:27:47;97822.91;;;0.46
22269;BMP280;11303;50.772;19.670;2022-12-10T04:29:49;97821.38;;;0.45
22269;BMP280;11303;50.772;19.670;2022-12-10T04:31:51;97824.41;;;0.47
22269;BMP280;11303;50.772;19.670;2022-12-10T04:33:52;97814.72;;;0.48
22269;BMP280;11303;50.772;19.670;2022-12-10T04:35:54;97829.63;;;0.47
22269;BMP280;11303;50.772;19.670;2022-12-10T04:37:55;97831.13;;;0.48
22269;BMP280;11303;50.772;19.670;2022-12-10T04:39:57;97828.84;;;0.47
22269;BMP280;11303;50.772;19.670;2022-12-10T04:41:59;97831.13;;;0.48
22269;BMP280;11303;50.772;19.670;2022-12-10T04:44:00;97830.38;;;0.48
22269;BMP280;11303;50.772;19.670;2022-12-10T04:46:02;97829.28;;;0.49
22269;BMP280;11303;50.772;19.670;2022-12-10T04:48:04;97820.69;;;0.48
22269;BMP280;11303;50.772;19.670;2022-12-10T04:50:06;97825.91;;;0.48
22269;BMP280;11303;50.772;19.670;2022-12-10T04:52:11;97841.56;;;0.48
22269;BMP280;11303;50.772;19.670;2022-12-10T04:54:13;97835.59;;;0.48
22269;BMP280;11303;50.772;19.670;2022-12-10T04:56:14;97838.59;;;0.50
22269;BMP280;11303;50.772;19.670;2022-12-10T04:58:16;97843.81;;;0.50
22269;BMP280;11303;50.772;19.670;2022-12-10T05:00:17;97850.91;;;0.49
22269;BMP280;11303;50.772;19.670;2022-12-10T05:02:19;97848.28;;;0.49
22269;BMP280;11303;50.772;19.670;2022-12-10T05:04:20;97862.84;;;0.50
22269;BMP280;11303;50.772;19.670;2022-12-10T05:06:22;97864.69;;;0.50
22269;BMP280;11303;50.772;19.670;2022-12-10T05:08:23;97864.69;;;0.50
22269;BMP280;11303;50.772;19.670;2022-12-10T05:10:25;97862.06;;;0.50
22269;BMP280;11303;50.772;19.670;2022-12-10T05:12:27;97860.22;;;0.50
22269;BMP280;11303;50.772;19.670;2022-12-10T05:14:29;97866.94;;;0.51
22269;BMP280;11303;50.772;19.670;2022-12-10T05:16:32;97855.00;;;0.50
22269;BMP280;11303;50.772;19.670;2022-12-10T05:18:34;97861.00;;;0.51
22269;BMP280;11303;50.772;19.670;2022-12-10T05:20:36;97868.81;;;0.51
22269;BMP280;11303;50.772;19.670;2022-12-10T05:22:37;97866.94;;;0.51
22269;BMP280;11303;50.772;19.670;2022-12-10T05:24:57;97868.81;;;0.51
22269;BMP280;11303;50.772;19.670;2022-12-10T05:26:59;97865.44;;;0.50
22269;BMP280;11303;50.772;19.670;2022-12-10T05:29:01;97865.44;;;0.50
22269;BMP280;11303;50.772;19.670;2022-12-10T05:31:03;97863.94;;;0.49
22269;BMP280;11303;50.772;19.670;2022-12-10T05:33:05;97866.56;;;0.49
22269;BMP280;11303;50.772;19.670;2022-12-10T05:35:06;97866.91;;;0.48
22269;BMP280;11303;50.772;19.670;2022-12-10T05:37:08;97873.59;;;0.49
22269;BMP280;11303;50.772;19.670;2022-12-10T05:39:10;97876.56;;;0.47
22269;BMP280;11303;50.772;19.670;2022-12-10T05:41:14;97883.63;;;0.47
22269;BMP280;11303;50.772;19.670;2022-12-10T05:43:16;97882.13;;;0.46
22269;BMP280;11303;50.772;19.670;2022-12-10T05:45:18;97889.59;;;0.47
22269;BMP280;11303;50.772;19.670;2022-12-10T05:47:19;97892.22;;;0.47
22269;BMP280;11303;50.772;19.670;2022-12-10T05:49:20;97890.72;;;0.46
22269;BMP280;11303;50.772;19.670;2022-12-10T05:51:25;97885.88;;;0.48
22269;BMP280;11303;50.772;19.670;2022-12-10T05:53:27;97881.00;;;0.47
22269;BMP280;11303;50.772;19.670;2022-12-10T05:55:28;97901.88;;;0.47
22269;BMP280;11303;50.772;19.670;2022-12-10T05:57:30;97904.47;;;0.47
22269;BMP280;11303;50.772;19.670;2022-12-10T05:59:31;97909.69;;;0.47
22269;BMP280;11303;50.772;19.670;2022-12-10T06:01:34;97905.59;;;0.46
22269;BMP280;11303;50.772;19.670;2022-12-10T06:03:35;97902.63;;;0.47
22269;BMP280;11303;50.772;19.670;2022-12-10T06:05:40;97904.47;;;0.47
22269;BMP280;11303;50.772;19.670;2022-12-10T06:07:42;97919.78;;;0.48
22269;BMP280;11303;50.772;19.670;2022-12-10T06:09:43;97911.97;;;0.48
22269;BMP280;11303;50.772;19.670;2022-12-10T06:11:45;97908.28;;;0.49
22269;BMP280;11303;50.772;19.670;2022-12-10T06:13:46;97911.97;;;0.48
22269;BMP280;11303;50.772;19.670;2022-12-10T06:15:56;97905.66;;;0.49
22269;BMP280;11303;50.772;19.670;2022-12-10T06:17:58;97918.72;;;0.49
22269;BMP280;11303;50.772;19.670;2022-12-10T06:20:00;97914.22;;;0.50
22269;BMP280;11303;50.772;19.670;2022-12-10T06:22:01;97918.28;;;0.47
22269;BMP280;11303;50.772;19.670;2022-12-10T06:24:03;97915.34;;;0.49
22269;BMP280;11303;50.772;19.670;2022-12-10T06:26:08;97929.16;;;0.49
22269;BMP280;11303;50.772;19.670;2022-12-10T06:28:10;97941.41;;;0.49
22269;BMP280;11303;50.772;19.670;2022-12-10T06:30:12;97930.22;;;0.48
22269;BMP280;11303;50.772;19.670;2022-12-10T06:32:13;97940.66;;;0.48
22269;BMP280;11303;50.772;19.670;2022-12-10T06:34:14;97929.50;;;0.48
22269;BMP280;11303;50.772;19.670;2022-12-10T06:36:17;97927.63;;;0.48
22269;BMP280;11303;50.772;19.670;2022-12-10T06:38:18;97918.28;;;0.47
22269;BMP280;11303;50.772;19.670;2022-12-10T06:40:20;97922.00;;;0.46
22269;BMP280;11303;50.772;19.670;2022-12-10T06:42:21;97898.53;;;0.46
22269;BMP280;11303;50.772;19.670;2022-12-10T06:44:23;97891.78;;;0.45
22269;BMP280;11303;50.772;19.670;2022-12-10T06:46:26;97879.84;;;0.44
22269;BMP280;11303;50.772;19.670;2022-12-10T06:48:29;97881.69;;;0.44
22269;BMP280;11303;50.772;19.670;2022-12-10T06:50:31;97878.75;;;0.45
22269;BMP280;11303;50.772;19.670;2022-12-10T06:52:32;97878.00;;;0.45
22269;BMP280;11303;50.772;19.670;2022-12-10T06:54:34;97886.56;;;0.45
22269;BMP280;11303;50.772;19.670;2022-12-10T06:56:35;97890.72;;;0.46
22269;BMP280;11303;50.772;19.670;2022-12-10T06:58:37;97889.19;;;0.45
22269;BMP280;11303;50.772;19.670;2022-12-10T07:00:39;97881.78;;;0.47
22269;BMP280;11303;50.772;19.670;2022-12-10T07:02:41;97901.13;;;0.46
22269;BMP280;11303;50.772;19.670;2022-12-10T07:04:43;97907.44;;;0.45
22269;BMP280;11303;50.772;19.670;2022-12-10T07:06:44;97918.28;;;0.47
22269;BMP280;11303;50.772;19.670;2022-12-10T07:08:46;97915.25;;;0.45
22269;BMP280;11303;50.772;19.670;2022-12-10T07:10:48;97904.81;;;0.45
22269;BMP280;11303;50.772;19.670;2022-12-10T07:12:50;97915.25;;;0.45
22269;BMP280;11303;50.772;19.670;2022-12-10T07:14:51;97917.88;;;0.45
22269;BMP280;11303;50.772;19.670;2022-12-10T07:16:53;97929.81;;;0.46
22269;BMP280;11303;50.772;19.670;2022-12-10T07:18:56;97937.66;;;0.46
22269;BMP280;11303;50.772;19.670;2022-12-10T07:20:57;97938.38;;;0.47
22269;BMP280;11303;50.772;19.670;2022-12-10T07:22:59;97943.59;;;0.47
22269;BMP280;11303;50.772;19.670;2022-12-10T07:25:00;97944.38;;;0.47
22269;BMP280;11303;50.772;19.670;2022-12-10T07:27:05;97936.13;;;0.45
22269;BMP280;11303;50.772;19.670;2022-12-10T07:29:11;97933.94;;;0.47
22269;BMP280;11303;50.772;19.670;2022-12-10T07:31:13;97947.41;;;0.49
22269;BMP280;11303;50.772;19.670;2022-12-10T07:33:15;97949.66;;;0.51
22269;BMP280;11303;50.772;19.670;2022-12-10T07:35:16;97947.41;;;0.49
22269;BMP280;11303;50.772;19.670;2022-12-10T07:37:18;97960.44;;;0.49
22269;BMP280;11303;50.772;19.670;2022-12-10T07:39:19;97970.09;;;0.49
22269;BMP280;11303;50.772;19.670;2022-12-10T07:41:22;97967.94;;;0.51
22269;BMP280;11303;50.772;19.670;2022-12-10T07:43:24;97978.69;;;0.49
22269;BMP280;11303;50.772;19.670;2022-12-10T07:45:25;97973.47;;;0.49
22269;BMP280;11303;50.772;19.670;2022-12-10T07:47:27;97962.28;;;0.49
22269;BMP280;11303;50.772;19.670;2022-12-10T07:49:29;97960.78;;;0.48
22269;BMP280;11303;50.772;19.670;2022-12-10T07:51:30;97953.69;;;0.48
22269;BMP280;11303;50.772;19.670;2022-12-10T07:53:32;97960.44;;;0.49
22269;BMP280;11303;50.772;19.670;2022-12-10T07:55:34;97960.44;;;0.49
22269;BMP280;11303;50.772;19.670;2022-12-10T07:57:36;97967.94;;;0.51
22269;BMP280;11303;50.772;19.670;2022-12-10T07:59:37;97978.03;;;0.52
22269;BMP280;11303;50.772;19.670;2022-12-10T08:01:39;97985.41;;;0.50
22269;BMP280;11303;50.772;19.670;2022-12-10T08:03:41;97981.72;;;0.51
22269;BMP280;11303;50.772;19.670;2022-12-10T08:05:43;97974.97;;;0.50
22269;BMP280;11303;50.772;19.670;2022-12-10T08:07:45;97982.03;;;0.50
22269;BMP280;11303;50.772;19.670;2022-12-10T08:09:46;97980.19;;;0.50
22269;BMP280;11303;50.772;19.670;2022-12-10T08:11:48;97988.72;;;0.47
22269;BMP280;11303;50.772;19.670;2022-12-10T08:13:50;97980.88;;;0.47
22269;BMP280;11303;50.772;19.670;2022-12-10T08:16:04;97989.47;;;0.48
22269;BMP280;11303;50.772;19.670;2022-12-10T08:18:06;97995.84;;;0.50
22269;BMP280;11303;50.772;19.670;2022-12-10T08:20:08;98001.06;;;0.50
22269;BMP280;11303;50.772;19.670;2022-12-10T08:22:10;97992.91;;;0.52
22269;BMP280;11303;50.772;19.670;2022-12-10T08:24:11;97996.28;;;0.52
22269;BMP280;11303;50.772;19.670;2022-12-10T08:26:21;97999.97;;;0.51
22269;BMP280;11303;50.772;19.670;2022-12-10T08:28:23;97996.63;;;0.51
22269;BMP280;11303;50.772;19.670;2022-12-10T08:30:25;97999.56;;;0.49
22269;BMP280;11303;50.772;19.670;2022-12-10T08:32:26;97993.25;;;0.50
22269;BMP280;11303;50.772;19.670;2022-12-10T08:34:28;97992.13;;;0.51
22269;BMP280;11303;50.772;19.670;2022-12-10T08:36:29;97998.88;;;0.52
22269;BMP280;11303;50.772;19.670;2022-12-10T08:38:32;97999.28;;;0.54
22269;BMP280;11303;50.772;19.670;2022-12-10T08:40:34;97991.47;;;0.54
22269;BMP280;11303;50.772;19.670;2022-12-10T08:42:35;97994.41;;;0.53
22269;BMP280;11303;50.772;19.670;2022-12-10T08:44:37;97999.63;;;0.53
22269;BMP280;11303;50.772;19.670;2022-12-10T08:46:38;98000.38;;;0.53
22269;BMP280;11303;50.772;19.670;2022-12-10T08:48:40;98006.72;;;0.52
22269;BMP280;11303;50.772;19.670;2022-12-10T08:50:42;98005.59;;;0.53
22269;BMP280;11303;50.772;19.670;2022-12-10T08:52:44;98004.16;;;0.56
22269;BMP280;11303;50.772;19.670;2022-12-10T08:54:48;97999.38;;;0.58
22269;BMP280;11303;50.772;19.670;2022-12-10T08:56:50;97994.16;;;0.58
22269;BMP280;11303;50.772;19.670;2022-12-10T08:58:52;97992.31;;;0.58
22269;BMP280;11303;50.772;19.670;2022-12-10T09:00:53;97987.34;;;0.53
22269;BMP280;11303;50.772;19.670;2022-12-10T09:02:55;97988.78;;;0.51
22269;BMP280;11303;50.772;19.670;2022-12-10T09:04:56;97984.66;;;0.50
22269;BMP280;11303;50.772;19.670;2022-12-10T09:06:58;97986.91;;;0.51
22269;BMP280;11303;50.772;19.670;2022-12-10T09:08:59;97983.25;;;0.52
22269;BMP280;11303;50.772;19.670;2022-12-10T09:11:08;97994.06;;;0.54
22269;BMP280;11303;50.772;19.670;2022-12-10T09:13:11;97992.91;;;0.52
22269;BMP280;11303;50.772;19.670;2022-12-10T09:15:13;97995.50;;;0.52
22269;BMP280;11303;50.772;19.670;2022-12-10T09:17:14;97985.84;;;0.52
22269;BMP280;11303;50.772;19.670;2022-12-10T09:19:16;97990.22;;;0.48
22269;BMP280;11303;50.772;19.670;2022-12-10T09:21:20;97994.34;;;0.49
22269;BMP280;11303;50.772;19.670;2022-12-10T09:23:22;98002.56;;;0.51
22269;BMP280;11303;50.772;19.670;2022-12-10T09:25:24;97996.53;;;0.47
22269;BMP280;11303;50.772;19.670;2022-12-10T09:27:25;97993.09;;;0.43
22269;BMP280;11303;50.772;19.670;2022-12-10T09:29:27;97992.75;;;0.45
22269;BMP280;11303;50.772;19.670;2022-12-10T09:31:29;97991.31;;;0.47
22269;BMP280;11303;50.772;19.670;2022-12-10T09:33:32;97989.13;;;0.49
22269;BMP280;11303;50.772;19.670;2022-12-10T09:35:34;97974.22;;;0.50
22269;BMP280;11303;50.772;19.670;2022-12-10T09:37:35;97979.44;;;0.50
22269;BMP280;11303;50.772;19.670;2022-12-10T09:39:37;97963.38;;;0.48
22269;BMP280;11303;50.772;19.670;2022-12-10T09:44:11;97972.03;;;0.52
22269;BMP280;11303;50.772;19.670;2022-12-10T09:51:23;97964.06;;;0.45
22269;BMP280;11303;50.772;19.670;2022-12-10T09:53:27;97962.19;;;0.45
22269;BMP280;11303;50.772;19.670;2022-12-10T09:55:40;97962.63;;;0.47
22269;BMP280;11303;50.772;19.670;2022-12-10T09:57:46;97954.03;;;0.47
22269;BMP280;11303;50.772;19.670;2022-12-10T09:59:51;97953.31;;;0.46
22269;BMP280;11303;50.772;19.670;2022-12-10T10:04:22;97952.44;;;0.42
22269;BMP280;11303;50.772;19.670;2022-12-10T10:06:26;97962.50;;;0.40
22269;BMP280;11303;50.772;19.670;2022-12-10T10:08:45;97958.44;;;0.43
22269;BMP280;11303;50.772;19.670;2022-12-10T10:10:48;97964.41;;;0.43
22269;BMP280;11303;50.772;19.670;2022-12-10T10:12:55;97956.59;;;0.43
22269;BMP280;11303;50.772;19.670;2022-12-10T10:15:10;97961.81;;;0.43
22269;BMP280;11303;50.772;19.670;2022-12-10T10:17:22;97967.03;;;0.43
22269;BMP280;11303;50.772;19.670;2022-12-10T10:19:33;97962.81;;;0.39
22269;BMP280;11303;50.772;19.670;2022-12-10T10:21:40;97962.81;;;0.39
22269;BMP280;11303;50.772;19.670;2022-12-10T10:23:44;97966.50;;;0.38
22269;BMP280;11303;50.772;19.670;2022-12-10T10:25:46;97968.38;;;0.37
22269;BMP280;11303;50.772;19.670;2022-12-10T10:27:48;97966.50;;;0.38
22269;BMP280;11303;50.772;19.670;2022-12-10T10:29:54;97977.72;;;0.38
22269;BMP280;11303;50.772;19.670;2022-12-10T10:34:39;97971.13;;;0.44
22269;BMP280;11303;50.772;19.670;2022-12-10T10:36:41;97967.75;;;0.44
22269;BMP280;11303;50.772;19.670;2022-12-10T10:38:48;97964.41;;;0.43
22269;BMP280;11303;50.772;19.670;2022-12-10T10:40:52;97965.16;;;0.44
22269;BMP280;11303;50.772;19.670;2022-12-10T10:42:56;97966.69;;;0.45
22269;BMP280;11303;50.772;19.670;2022-12-10T10:44:59;97979.03;;;0.48
22269;BMP280;11303;50.772;19.670;2022-12-10T10:47:01;97969.19;;;0.41
22269;BMP280;11303;50.772;19.670;2022-12-10T10:49:26;97964.25;;;0.36
22269;BMP280;11303;50.772;19.670;2022-12-10T10:51:28;97963.91;;;0.38
22269;BMP280;11303;50.772;19.670;2022-12-10T10:53:31;97956.16;;;0.41
22269;BMP280;11303;50.772;19.670;2022-12-10T10:55:33;97965.16;;;0.44
22269;BMP280;11303;50.772;19.670;2022-12-10T10:57:37;97959.53;;;0.42
22269;BMP280;11303;50.772;19.670;2022-12-10T10:59:39;97962.81;;;0.39
22269;BMP280;11303;50.772;19.670;2022-12-10T11:01:52;97951.19;;;0.36
22269;BMP280;11303;50.772;19.670;2022-12-10T11:03:57;97954.66;;;0.40
22269;BMP280;11303;50.772;19.670;2022-12-10T11:06:00;97953.91;;;0.40
22269;BMP280;11303;50.772;19.670;2022-12-10T11:08:05;97963.66;;;0.43
22269;BMP280;11303;50.772;19.670;2022-12-10T11:10:20;97967.69;;;0.40
22269;BMP280;11303;50.772;19.670;2022-12-10T11:12:34;97959.13;;;0.40
22269;BMP280;11303;50.772;19.670;2022-12-10T11:14:42;97953.47;;;0.38
22269;BMP280;11303;50.772;19.670;2022-12-10T11:16:44;97952.31;;;0.35
22269;BMP280;11303;50.772;19.670;2022-12-10T11:18:58;97952.31;;;0.35
22269;BMP280;11303;50.772;19.670;2022-12-10T11:21:16;97959.78;;;0.37
22269;BMP280;11303;50.772;19.670;2022-12-10T11:23:18;97968.03;;;0.39
22269;BMP280;11303;50.772;19.670;2022-12-10T11:25:31;97969.19;;;0.41
22269;BMP280;11303;50.772;19.670;2022-12-10T11:27:51;97964.31;;;0.40
22269;BMP280;11303;50.772;19.670;2022-12-10T11:30:05;97979.97;;;0.40
22269;BMP280;11303;50.772;19.670;2022-12-10T11:34:19;97984.84;;;0.41
22269;BMP280;11303;50.772;19.670;2022-12-10T11:38:32;97983.69;;;0.39
22269;BMP280;11303;50.772;19.670;2022-12-10T11:40:46;97983.59;;;0.35
22269;BMP280;11303;50.772;19.670;2022-12-10T11:43:13;97977.22;;;0.33
22269;BMP280;11303;50.772;19.670;2022-12-10T11:54:58;97981.81;;;0.39
22269;BMP280;11303;50.772;19.670;2022-12-10T11:57:09;97976.59;;;0.39
22269;BMP280;11303;50.772;19.670;2022-12-10T12:06:56;97971.47;;;0.43
22269;BMP280;11303;50.772;19.670;2022-12-10T12:14:12;97968.78;;;0.39
22269;BMP280;11303;50.772;19.670;2022-12-10T12:16:18;97981.47;;;0.41
22269;BMP280;11303;50.772;19.670;2022-12-10T12:18:32;97974.84;;;0.43
22269;BMP280;11303;50.772;19.670;2022-12-10T12:20:41;97969.69;;;0.47
22269;BMP280;11303;50.772;19.670;2022-12-10T12:22:49;97963.72;;;0.46
22269;BMP280;11303;50.772;19.670;2022-12-10T12:25:05;97962.53;;;0.44
22269;BMP280;11303;50.772;19.670;2022-12-10T12:27:31;97955.41;;;0.41
22269;BMP280;11303;50.772;19.670;2022-12-10T12:31:46;97965.91;;;0.44
22269;BMP280;11303;50.772;19.670;2022-12-10T12:33:54;97971.22;;;0.48
22269;BMP280;11303;50.772;19.670;2022-12-10T12:36:14;97964.06;;;0.45
22269;BMP280;11303;50.772;19.670;2022-12-10T12:38:32;97957.66;;;0.42
22269;BMP280;11303;50.772;19.670;2022-12-10T12:40:40;97966.34;;;0.46
22269;BMP280;11303;50.772;19.670;2022-12-10T12:42:49;97961.53;;;0.48
22269;BMP280;11303;50.772;19.670;2022-12-10T12:47:22;97969.34;;;0.48
22269;BMP280;11303;50.772;19.670;2022-12-10T12:49:27;97964.56;;;0.50
22269;BMP280;11303;50.772;19.670;2022-12-10T12:52:24;97975.75;;;0.51